RYR7AK EPKT-LIBD
Flight info
| Callsign | RYR7AK |
|---|---|
| Flight time | 1h 30m |
| Altitude | 24000 |
| Route | BABKO M866 NIDOK/N0442F360 DCT VEBAL/N0444F370 DCT AIOSA DCT BANAV |
| Aircraft | B738/M-SDE2E3FGHIRWXY/LB1 |
Departure
| Time | 2026-04-22 16:07 |
|---|---|
| Airport | Katowice Wojciech Korfanty International Airport (EPKT) |
Arrival
| Time | 2026-04-22 17:37 |
|---|---|
| Airport | Bari Karol Wojtyła International Airport (LIBD) |
| Time | Latitude | Longitude | Altitude | Speed | Heading |
|---|---|---|---|---|---|
| 2026-04-22 15:42 | 50.47150 | 19.07759 | 993 ft | 0 kts | 180° |
| 2026-04-22 15:55 | 50.47159 | 19.07759 | 992 ft | 2 kts | 178° |
| 2026-04-22 15:55 | 50.47174 | 19.07758 | 992 ft | 2 kts | 181° |
| 2026-04-22 15:56 | 50.47188 | 19.07759 | 992 ft | 0 kts | 179° |
| 2026-04-22 15:56 | 50.47199 | 19.07758 | 992 ft | 2 kts | 169° |
| 2026-04-22 15:56 | 50.47213 | 19.07750 | 992 ft | 2 kts | 149° |
| 2026-04-22 15:56 | 50.47224 | 19.07735 | 992 ft | 2 kts | 130° |
| 2026-04-22 15:57 | 50.47232 | 19.07715 | 992 ft | 2 kts | 112° |
| 2026-04-22 15:57 | 50.47236 | 19.07693 | 992 ft | 1 kts | 94° |
| 2026-04-22 15:57 | 50.47236 | 19.07683 | 992 ft | 1 kts | 88° |
| 2026-04-22 15:57 | 50.47236 | 19.07680 | 992 ft | 0 kts | 89° |
| 2026-04-22 16:00 | 50.47236 | 19.07682 | 992 ft | 1 kts | 89° |
| 2026-04-22 16:00 | 50.47235 | 19.07740 | 992 ft | 9 kts | 90° |
| 2026-04-22 16:00 | 50.47234 | 19.07874 | 992 ft | 14 kts | 90° |
| 2026-04-22 16:01 | 50.47234 | 19.08061 | 993 ft | 19 kts | 90° |
| 2026-04-22 16:01 | 50.47234 | 19.08285 | 993 ft | 22 kts | 90° |
| 2026-04-22 16:01 | 50.47234 | 19.08518 | 995 ft | 19 kts | 90° |
| 2026-04-22 16:01 | 50.47234 | 19.08730 | 996 ft | 19 kts | 90° |
| 2026-04-22 16:02 | 50.47233 | 19.08935 | 998 ft | 18 kts | 90° |
| 2026-04-22 16:02 | 50.47232 | 19.09132 | 1000 ft | 18 kts | 90° |
| 2026-04-22 16:02 | 50.47231 | 19.09327 | 1003 ft | 17 kts | 90° |
| 2026-04-22 16:02 | 50.47231 | 19.09517 | 1005 ft | 17 kts | 90° |
| 2026-04-22 16:03 | 50.47230 | 19.09700 | 1007 ft | 16 kts | 90° |
| 2026-04-22 16:03 | 50.47230 | 19.09880 | 1010 ft | 16 kts | 90° |
| 2026-04-22 16:03 | 50.47254 | 19.10059 | 1011 ft | 18 kts | 52° |
| 2026-04-22 16:03 | 50.47336 | 19.10223 | 1011 ft | 14 kts | 52° |
| 2026-04-22 16:04 | 50.47363 | 19.10280 | 1011 ft | 0 kts | 52° |
| 2026-04-22 16:04 | 50.47364 | 19.10281 | 1011 ft | 1 kts | 52° |
| 2026-04-22 16:05 | 50.47379 | 19.10313 | 1011 ft | 5 kts | 52° |
| 2026-04-22 16:05 | 50.47414 | 19.10383 | 1011 ft | 10 kts | 52° |
| 2026-04-22 16:05 | 50.47485 | 19.10448 | 1011 ft | 14 kts | 2° |
| 2026-04-22 16:05 | 50.47585 | 19.10409 | 1010 ft | 13 kts | 300° |
| 2026-04-22 16:06 | 50.47596 | 19.10293 | 1009 ft | 11 kts | 271° |
| 2026-04-22 16:06 | 50.47596 | 19.10058 | 1007 ft | 34 kts | 270° |
| 2026-04-22 16:06 | 50.47599 | 19.09268 | 999 ft | 112 kts | 270° |
| 2026-04-22 16:06 | 50.47600 | 19.07665 | 1019 ft | 176 kts | 272° |
| 2026-04-22 16:07 | 50.47559 | 19.05791 | 1983 ft | 172 kts | 271° |
| 2026-04-22 16:07 | 50.47532 | 19.03956 | 2819 ft | 174 kts | 274° |
| 2026-04-22 16:07 | 50.47533 | 19.02071 | 3327 ft | 177 kts | 275° |
| 2026-04-22 16:07 | 50.47561 | 19.00053 | 3650 ft | 194 kts | 277° |
| 2026-04-22 16:08 | 50.47537 | 18.97833 | 4023 ft | 212 kts | 265° |
| 2026-04-22 16:08 | 50.46906 | 18.95663 | 4361 ft | 238 kts | 230° |
| 2026-04-22 16:08 | 50.45422 | 18.94332 | 4734 ft | 262 kts | 191° |
| 2026-04-22 16:08 | 50.43576 | 18.94615 | 5148 ft | 278 kts | 155° |
| 2026-04-22 16:09 | 50.42047 | 18.96481 | 5713 ft | 282 kts | 130° |
| 2026-04-22 16:09 | 50.40620 | 18.98577 | 6372 ft | 288 kts | 148° |
| 2026-04-22 16:09 | 50.38730 | 18.99538 | 7091 ft | 291 kts | 174° |
| 2026-04-22 16:09 | 50.36727 | 18.99639 | 7793 ft | 295 kts | 178° |
| 2026-04-22 16:10 | 50.34676 | 18.99884 | 8503 ft | 298 kts | 170° |
| 2026-04-22 16:10 | 50.32658 | 19.00637 | 9265 ft | 300 kts | 160° |
| 2026-04-22 16:10 | 50.30747 | 19.01890 | 9983 ft | 301 kts | 146° |
| 2026-04-22 16:10 | 50.28924 | 19.03514 | 10585 ft | 310 kts | 152° |
| 2026-04-22 16:11 | 50.26872 | 19.04841 | 11080 ft | 324 kts | 157° |
| 2026-04-22 16:11 | 50.24748 | 19.06017 | 11843 ft | 327 kts | 158° |
| 2026-04-22 16:11 | 50.22595 | 19.07186 | 12606 ft | 331 kts | 158° |
| 2026-04-22 16:11 | 50.20441 | 19.08381 | 13346 ft | 334 kts | 156° |
| 2026-04-22 16:12 | 50.18276 | 19.09717 | 14091 ft | 337 kts | 153° |
| 2026-04-22 16:12 | 50.16121 | 19.11116 | 14901 ft | 339 kts | 152° |
| 2026-04-22 16:12 | 50.13925 | 19.12547 | 15679 ft | 342 kts | 153° |
| 2026-04-22 16:12 | 50.11769 | 19.13988 | 16437 ft | 345 kts | 152° |
| 2026-04-22 16:13 | 50.09541 | 19.15459 | 17186 ft | 348 kts | 153° |
| 2026-04-22 16:13 | 50.07301 | 19.16895 | 17899 ft | 352 kts | 153° |
| 2026-04-22 16:13 | 50.05038 | 19.18325 | 18601 ft | 355 kts | 153° |
| 2026-04-22 16:13 | 50.02765 | 19.19832 | 19321 ft | 355 kts | 147° |
| 2026-04-22 16:14 | 50.00535 | 19.21475 | 20036 ft | 359 kts | 152° |
| 2026-04-22 16:14 | 49.98206 | 19.22789 | 20727 ft | 363 kts | 154° |
| 2026-04-22 16:14 | 49.95820 | 19.24129 | 21347 ft | 365 kts | 152° |
| 2026-04-22 16:14 | 49.93485 | 19.25567 | 22039 ft | 365 kts | 150° |
| 2026-04-22 16:15 | 49.91140 | 19.27069 | 22622 ft | 368 kts | 150° |
| 2026-04-22 16:15 | 49.88740 | 19.28609 | 23226 ft | 371 kts | 150° |
| 2026-04-22 16:15 | 49.86355 | 19.30135 | 23819 ft | 372 kts | 149° |
| 2026-04-22 16:15 | 49.83938 | 19.31568 | 24140 ft | 385 kts | 155° |
| 2026-04-22 16:16 | 49.81274 | 19.32466 | 24152 ft | 394 kts | 166° |
| 2026-04-22 16:16 | 49.78548 | 19.32582 | 24309 ft | 403 kts | 178° |
| 2026-04-22 16:16 | 49.75744 | 19.31849 | 24995 ft | 408 kts | 190° |
| 2026-04-22 16:16 | 49.73067 | 19.30365 | 25522 ft | 415 kts | 199° |
| 2026-04-22 16:17 | 49.70493 | 19.28392 | 25980 ft | 421 kts | 203° |
| 2026-04-22 16:17 | 49.67885 | 19.26274 | 26463 ft | 423 kts | 202° |
| 2026-04-22 16:17 | 49.65258 | 19.24282 | 26910 ft | 425 kts | 200° |
| 2026-04-22 16:17 | 49.62572 | 19.22428 | 27365 ft | 427 kts | 198° |
| 2026-04-22 16:18 | 49.59817 | 19.20688 | 27836 ft | 428 kts | 196° |
| 2026-04-22 16:18 | 49.56999 | 19.19029 | 28229 ft | 431 kts | 195° |
| 2026-04-22 16:18 | 49.54189 | 19.17446 | 28654 ft | 433 kts | 194° |
| 2026-04-22 16:18 | 49.51350 | 19.15885 | 29081 ft | 436 kts | 194° |
| 2026-04-22 16:19 | 49.48438 | 19.14305 | 29469 ft | 439 kts | 194° |
| 2026-04-22 16:19 | 49.45528 | 19.12737 | 29910 ft | 440 kts | 193° |
| 2026-04-22 16:19 | 49.42623 | 19.11185 | 30245 ft | 444 kts | 193° |
| 2026-04-22 16:19 | 49.39673 | 19.09615 | 30666 ft | 446 kts | 193° |
| 2026-04-22 16:20 | 49.36709 | 19.08042 | 31032 ft | 448 kts | 193° |
| 2026-04-22 16:20 | 49.33766 | 19.06499 | 31390 ft | 450 kts | 193° |
| 2026-04-22 16:20 | 49.30806 | 19.04948 | 31770 ft | 451 kts | 194° |
| 2026-04-22 16:20 | 49.27806 | 19.03370 | 32150 ft | 452 kts | 193° |
| 2026-04-22 16:21 | 49.24797 | 19.01788 | 32412 ft | 456 kts | 194° |
| 2026-04-22 16:21 | 49.21787 | 19.00206 | 32703 ft | 458 kts | 195° |
| 2026-04-22 16:21 | 49.18747 | 18.98604 | 32947 ft | 461 kts | 194° |
| 2026-04-22 16:21 | 49.15717 | 18.97011 | 33193 ft | 463 kts | 195° |
| 2026-04-22 16:22 | 49.09583 | 18.93803 | 33668 ft | 467 kts | 195° |
| 2026-04-22 16:22 | 49.06504 | 18.92193 | 33862 ft | 471 kts | 195° |
| 2026-04-22 16:22 | 49.03393 | 18.90565 | 34132 ft | 472 kts | 195° |
| 2026-04-22 16:23 | 48.97172 | 18.87320 | 34792 ft | 469 kts | 196° |
| 2026-04-22 16:23 | 48.94089 | 18.85710 | 35173 ft | 467 kts | 196° |
| 2026-04-22 16:23 | 48.91035 | 18.84118 | 35430 ft | 468 kts | 196° |
| 2026-04-22 16:24 | 48.87917 | 18.82499 | 35730 ft | 467 kts | 196° |
| 2026-04-22 16:24 | 48.81760 | 18.79189 | 36100 ft | 470 kts | 198° |
| 2026-04-22 16:25 | 48.75621 | 18.75728 | 36124 ft | 467 kts | 199° |
| 2026-04-22 16:25 | 48.66570 | 18.70633 | 36129 ft | 465 kts | 199° |
| 2026-04-22 16:26 | 48.60507 | 18.67256 | 36132 ft | 465 kts | 198° |
| 2026-04-22 16:26 | 48.54449 | 18.63900 | 36139 ft | 465 kts | 198° |
| 2026-04-22 16:27 | 48.48383 | 18.60538 | 36123 ft | 465 kts | 199° |
| 2026-04-22 16:27 | 48.42305 | 18.57169 | 36131 ft | 465 kts | 199° |
| 2026-04-22 16:28 | 48.36265 | 18.53854 | 36136 ft | 463 kts | 198° |
| 2026-04-22 16:28 | 48.30228 | 18.50552 | 36134 ft | 463 kts | 199° |
| 2026-04-22 16:29 | 48.24143 | 18.47230 | 36130 ft | 462 kts | 199° |
| 2026-04-22 16:29 | 48.18090 | 18.43927 | 36130 ft | 463 kts | 199° |
| 2026-04-22 16:30 | 48.12058 | 18.40641 | 36132 ft | 462 kts | 199° |
| 2026-04-22 16:30 | 48.05992 | 18.37349 | 36131 ft | 462 kts | 199° |
| 2026-04-22 16:31 | 47.99926 | 18.34068 | 36124 ft | 461 kts | 198° |
| 2026-04-22 16:31 | 47.93950 | 18.30839 | 36135 ft | 460 kts | 198° |
| 2026-04-22 16:32 | 47.87875 | 18.27563 | 36141 ft | 461 kts | 199° |
| 2026-04-22 16:32 | 47.81820 | 18.24299 | 36139 ft | 462 kts | 199° |
| 2026-04-22 16:33 | 47.75761 | 18.21057 | 36137 ft | 461 kts | 198° |
| 2026-04-22 16:33 | 47.69749 | 18.17846 | 36141 ft | 462 kts | 199° |
| 2026-04-22 16:34 | 47.63700 | 18.14621 | 36138 ft | 461 kts | 199° |
| 2026-04-22 16:34 | 47.57644 | 18.11395 | 36143 ft | 461 kts | 199° |
| 2026-04-22 16:35 | 47.51638 | 18.08213 | 36141 ft | 460 kts | 199° |
| 2026-04-22 16:35 | 47.45594 | 18.05025 | 36143 ft | 461 kts | 199° |
| 2026-04-22 16:36 | 47.39566 | 18.01842 | 36138 ft | 460 kts | 199° |
| 2026-04-22 16:36 | 47.33534 | 17.98660 | 36146 ft | 460 kts | 199° |
| 2026-04-22 16:37 | 47.27537 | 17.95507 | 36142 ft | 460 kts | 200° |
| 2026-04-22 16:37 | 47.21533 | 17.92353 | 36140 ft | 459 kts | 199° |
| 2026-04-22 16:38 | 47.15517 | 17.89206 | 36142 ft | 459 kts | 199° |
| 2026-04-22 16:38 | 47.09493 | 17.86067 | 36143 ft | 459 kts | 200° |
| 2026-04-22 16:39 | 47.03487 | 17.82938 | 36146 ft | 459 kts | 199° |
| 2026-04-22 16:39 | 46.97468 | 17.79807 | 36147 ft | 458 kts | 200° |
| 2026-04-22 16:40 | 46.91449 | 17.76687 | 36148 ft | 458 kts | 200° |
| 2026-04-22 16:41 | 46.82429 | 17.72034 | 36149 ft | 459 kts | 200° |
| 2026-04-22 16:41 | 46.76394 | 17.68923 | 36144 ft | 459 kts | 200° |
| 2026-04-22 16:42 | 46.70364 | 17.65816 | 36151 ft | 458 kts | 200° |
| 2026-04-22 16:42 | 46.64321 | 17.62718 | 36154 ft | 458 kts | 200° |
| 2026-04-22 16:43 | 46.58324 | 17.59658 | 36147 ft | 459 kts | 201° |
| 2026-04-22 16:43 | 46.52270 | 17.56569 | 36145 ft | 458 kts | 200° |
| 2026-04-22 16:44 | 46.46270 | 17.53515 | 36156 ft | 458 kts | 200° |
| 2026-04-22 16:44 | 46.40252 | 17.50463 | 36143 ft | 458 kts | 201° |
| 2026-04-22 16:45 | 46.34238 | 17.47420 | 36148 ft | 458 kts | 201° |
| 2026-04-22 16:45 | 46.28212 | 17.44373 | 36146 ft | 458 kts | 200° |
| 2026-04-22 16:46 | 46.22202 | 17.41333 | 36148 ft | 457 kts | 201° |
| 2026-04-22 16:46 | 46.16193 | 17.38313 | 36144 ft | 457 kts | 201° |
| 2026-04-22 16:47 | 46.10179 | 17.35301 | 36147 ft | 457 kts | 201° |
| 2026-04-22 16:47 | 46.04161 | 17.32294 | 36141 ft | 457 kts | 201° |
| 2026-04-22 16:48 | 45.98069 | 17.29765 | 36148 ft | 459 kts | 190° |
| 2026-04-22 16:48 | 45.91691 | 17.29092 | 36147 ft | 460 kts | 181° |
| 2026-04-22 16:49 | 45.85252 | 17.29175 | 36150 ft | 460 kts | 179° |
| 2026-04-22 16:49 | 45.78876 | 17.29321 | 36144 ft | 460 kts | 180° |
| 2026-04-22 16:50 | 45.72428 | 17.29353 | 36148 ft | 460 kts | 181° |
| 2026-04-22 16:50 | 45.66016 | 17.29310 | 36145 ft | 460 kts | 181° |
| 2026-04-22 16:51 | 45.59565 | 17.29248 | 36145 ft | 460 kts | 181° |
| 2026-04-22 16:51 | 45.53158 | 17.29174 | 36146 ft | 460 kts | 182° |
| 2026-04-22 16:52 | 45.46756 | 17.29093 | 36149 ft | 460 kts | 182° |
| 2026-04-22 16:52 | 45.40366 | 17.29010 | 36149 ft | 459 kts | 182° |
| 2026-04-22 16:53 | 45.33985 | 17.28928 | 36155 ft | 460 kts | 182° |
| 2026-04-22 16:53 | 45.27565 | 17.28849 | 36160 ft | 460 kts | 182° |
| 2026-04-22 16:54 | 45.21195 | 17.28769 | 36162 ft | 460 kts | 182° |
| 2026-04-22 16:54 | 45.14821 | 17.28701 | 36166 ft | 460 kts | 182° |
| 2026-04-22 16:55 | 45.08438 | 17.28619 | 36166 ft | 459 kts | 182° |
| 2026-04-22 16:55 | 45.02044 | 17.28540 | 36167 ft | 459 kts | 182° |
| 2026-04-22 16:56 | 44.95657 | 17.28467 | 36171 ft | 459 kts | 183° |
| 2026-04-22 16:56 | 44.89238 | 17.28383 | 36168 ft | 459 kts | 183° |
| 2026-04-22 16:57 | 44.82798 | 17.28293 | 36168 ft | 459 kts | 182° |
| 2026-04-22 16:57 | 44.76388 | 17.28208 | 36165 ft | 459 kts | 183° |
| 2026-04-22 16:58 | 44.71076 | 17.28147 | 36160 ft | 459 kts | 183° |
| 2026-04-22 16:58 | 44.63607 | 17.28065 | 36145 ft | 459 kts | 183° |
| 2026-04-22 16:59 | 44.57199 | 17.27991 | 36123 ft | 460 kts | 183° |
| 2026-04-22 16:59 | 44.50779 | 17.27913 | 36102 ft | 459 kts | 184° |
| 2026-04-22 17:00 | 44.44409 | 17.27831 | 36084 ft | 459 kts | 184° |
| 2026-04-22 17:00 | 44.34824 | 17.27715 | 36072 ft | 459 kts | 184° |
| 2026-04-22 17:01 | 44.28387 | 17.27642 | 36069 ft | 459 kts | 184° |
| 2026-04-22 17:01 | 44.21975 | 17.27573 | 36067 ft | 459 kts | 184° |
| 2026-04-22 17:02 | 44.15571 | 17.27498 | 36070 ft | 459 kts | 185° |
| 2026-04-22 17:02 | 44.09174 | 17.27409 | 36073 ft | 459 kts | 185° |
| 2026-04-22 17:03 | 44.02794 | 17.27323 | 36075 ft | 459 kts | 184° |
| 2026-04-22 17:03 | 43.96435 | 17.27256 | 36074 ft | 459 kts | 185° |
| 2026-04-22 17:04 | 43.90041 | 17.27183 | 36085 ft | 459 kts | 185° |
| 2026-04-22 17:04 | 43.83623 | 17.27099 | 36071 ft | 459 kts | 185° |
| 2026-04-22 17:05 | 43.77246 | 17.27029 | 36063 ft | 459 kts | 185° |
| 2026-04-22 17:05 | 43.70831 | 17.26945 | 36080 ft | 460 kts | 186° |
| 2026-04-22 17:06 | 43.64435 | 17.26858 | 36085 ft | 458 kts | 185° |
| 2026-04-22 17:06 | 43.58049 | 17.26784 | 36082 ft | 459 kts | 185° |
| 2026-04-22 17:07 | 43.51669 | 17.26726 | 36087 ft | 460 kts | 186° |
| 2026-04-22 17:07 | 43.45271 | 17.26661 | 36089 ft | 460 kts | 186° |
| 2026-04-22 17:08 | 43.38859 | 17.26585 | 36074 ft | 460 kts | 186° |
| 2026-04-22 17:08 | 43.32438 | 17.26506 | 36077 ft | 461 kts | 186° |
| 2026-04-22 17:09 | 43.26060 | 17.26426 | 36055 ft | 458 kts | 187° |
| 2026-04-22 17:09 | 43.19711 | 17.26345 | 36058 ft | 461 kts | 187° |
| 2026-04-22 17:10 | 43.13286 | 17.26270 | 36060 ft | 461 kts | 186° |
| 2026-04-22 17:10 | 43.06887 | 17.26202 | 36001 ft | 459 kts | 187° |
| 2026-04-22 17:11 | 43.03715 | 17.26172 | 35697 ft | 454 kts | 187° |
| 2026-04-22 17:11 | 43.00605 | 17.26144 | 35299 ft | 451 kts | 187° |
| 2026-04-22 17:11 | 42.97465 | 17.26115 | 34881 ft | 448 kts | 187° |
| 2026-04-22 17:11 | 42.94385 | 17.26079 | 34394 ft | 447 kts | 188° |
| 2026-04-22 17:12 | 42.91271 | 17.26037 | 33892 ft | 447 kts | 188° |
| 2026-04-22 17:12 | 42.88136 | 17.25994 | 33405 ft | 448 kts | 188° |
| 2026-04-22 17:12 | 42.85065 | 17.25951 | 32906 ft | 449 kts | 188° |
| 2026-04-22 17:12 | 42.81916 | 17.25908 | 32307 ft | 450 kts | 189° |
| 2026-04-22 17:13 | 42.78809 | 17.25868 | 31760 ft | 449 kts | 189° |
| 2026-04-22 17:13 | 42.75695 | 17.25832 | 31219 ft | 448 kts | 189° |
| 2026-04-22 17:13 | 42.72604 | 17.25801 | 30684 ft | 447 kts | 190° |
| 2026-04-22 17:13 | 42.69511 | 17.25769 | 30144 ft | 445 kts | 190° |
| 2026-04-22 17:14 | 42.66439 | 17.25736 | 29584 ft | 439 kts | 190° |
| 2026-04-22 17:14 | 42.63405 | 17.25716 | 29070 ft | 427 kts | 189° |
| 2026-04-22 17:14 | 42.60502 | 17.25700 | 28564 ft | 416 kts | 191° |
| 2026-04-22 17:14 | 42.57640 | 17.25679 | 28094 ft | 409 kts | 191° |
| 2026-04-22 17:15 | 42.55765 | 17.25656 | 27758 ft | 408 kts | 191° |
| 2026-04-22 17:15 | 42.51984 | 17.25596 | 27100 ft | 405 kts | 191° |
| 2026-04-22 17:15 | 42.49189 | 17.25553 | 26608 ft | 403 kts | 192° |
| 2026-04-22 17:15 | 42.46378 | 17.25511 | 26134 ft | 401 kts | 191° |
| 2026-04-22 17:16 | 42.43627 | 17.25473 | 25643 ft | 400 kts | 191° |
| 2026-04-22 17:16 | 42.40850 | 17.25438 | 25149 ft | 398 kts | 191° |
| 2026-04-22 17:16 | 42.38086 | 17.25406 | 24640 ft | 395 kts | 192° |
| 2026-04-22 17:16 | 42.35369 | 17.25372 | 24190 ft | 392 kts | 192° |
| 2026-04-22 17:17 | 42.32635 | 17.25341 | 23703 ft | 390 kts | 191° |
| 2026-04-22 17:17 | 42.29968 | 17.25310 | 23236 ft | 388 kts | 191° |
| 2026-04-22 17:17 | 42.27264 | 17.25276 | 22764 ft | 385 kts | 191° |
| 2026-04-22 17:17 | 42.24602 | 17.25245 | 22291 ft | 383 kts | 190° |
| 2026-04-22 17:18 | 42.21957 | 17.25215 | 21833 ft | 381 kts | 189° |
| 2026-04-22 17:18 | 42.19322 | 17.25189 | 21371 ft | 379 kts | 189° |
| 2026-04-22 17:18 | 42.16707 | 17.25162 | 20899 ft | 376 kts | 188° |
| 2026-04-22 17:18 | 42.14090 | 17.25136 | 20432 ft | 374 kts | 188° |
| 2026-04-22 17:19 | 42.08930 | 17.25074 | 19523 ft | 368 kts | 188° |
| 2026-04-22 17:19 | 42.03885 | 17.25007 | 18626 ft | 361 kts | 186° |
| 2026-04-22 17:20 | 41.98904 | 17.24945 | 17740 ft | 355 kts | 186° |
| 2026-04-22 17:20 | 41.94052 | 17.24629 | 16878 ft | 341 kts | 196° |
| 2026-04-22 17:21 | 41.91864 | 17.23631 | 16452 ft | 324 kts | 217° |
| 2026-04-22 17:21 | 41.88538 | 17.19884 | 15667 ft | 308 kts | 230° |
| 2026-04-22 17:22 | 41.85428 | 17.16049 | 14898 ft | 302 kts | 228° |
| 2026-04-22 17:22 | 41.83866 | 17.14179 | 14517 ft | 299 kts | 228° |
| 2026-04-22 17:22 | 41.80791 | 17.10534 | 13784 ft | 293 kts | 228° |
| 2026-04-22 17:23 | 41.79297 | 17.08762 | 13421 ft | 290 kts | 228° |
| 2026-04-22 17:23 | 41.76276 | 17.05173 | 12675 ft | 294 kts | 227° |
| 2026-04-22 17:23 | 41.74754 | 17.03371 | 12305 ft | 294 kts | 227° |
| 2026-04-22 17:24 | 41.73189 | 17.01612 | 11924 ft | 294 kts | 222° |
| 2026-04-22 17:24 | 41.71384 | 17.00276 | 11552 ft | 299 kts | 205° |
| 2026-04-22 17:24 | 41.69375 | 16.99475 | 11168 ft | 300 kts | 198° |
| 2026-04-22 17:24 | 41.67369 | 16.98850 | 10790 ft | 299 kts | 197° |
| 2026-04-22 17:25 | 41.65332 | 16.98193 | 10412 ft | 297 kts | 198° |
| 2026-04-22 17:25 | 41.63361 | 16.97502 | 10037 ft | 295 kts | 199° |
| 2026-04-22 17:25 | 41.61403 | 16.96774 | 9812 ft | 287 kts | 199° |
| 2026-04-22 17:25 | 41.59497 | 16.96047 | 9454 ft | 286 kts | 199° |
| 2026-04-22 17:26 | 41.57585 | 16.95315 | 9099 ft | 285 kts | 200° |
| 2026-04-22 17:26 | 41.55676 | 16.94587 | 8837 ft | 283 kts | 199° |
| 2026-04-22 17:26 | 41.53778 | 16.93932 | 8583 ft | 288 kts | 193° |
| 2026-04-22 17:26 | 41.51766 | 16.93879 | 8326 ft | 291 kts | 169° |
| 2026-04-22 17:27 | 41.49857 | 16.94745 | 8083 ft | 290 kts | 155° |
| 2026-04-22 17:27 | 41.48026 | 16.95905 | 7829 ft | 289 kts | 153° |
| 2026-04-22 17:27 | 41.46227 | 16.97058 | 7569 ft | 288 kts | 154° |
| 2026-04-22 17:27 | 41.44425 | 16.98192 | 7321 ft | 284 kts | 151° |
| 2026-04-22 17:28 | 41.42767 | 16.99586 | 7071 ft | 278 kts | 141° |
| 2026-04-22 17:28 | 41.41288 | 17.01193 | 6820 ft | 273 kts | 137° |
| 2026-04-22 17:28 | 41.39882 | 17.02848 | 6566 ft | 270 kts | 135° |
| 2026-04-22 17:28 | 41.38467 | 17.04503 | 6312 ft | 268 kts | 137° |
| 2026-04-22 17:29 | 41.37052 | 17.06114 | 6066 ft | 268 kts | 137° |
| 2026-04-22 17:29 | 41.35641 | 17.07693 | 5844 ft | 266 kts | 137° |
| 2026-04-22 17:29 | 41.34240 | 17.09251 | 5613 ft | 261 kts | 138° |
| 2026-04-22 17:29 | 41.32827 | 17.10817 | 5296 ft | 265 kts | 138° |
| 2026-04-22 17:30 | 41.31410 | 17.12394 | 4962 ft | 266 kts | 138° |
| 2026-04-22 17:30 | 41.29990 | 17.13973 | 4599 ft | 267 kts | 138° |
| 2026-04-22 17:30 | 41.28507 | 17.15415 | 4367 ft | 263 kts | 149° |
| 2026-04-22 17:30 | 41.26813 | 17.16183 | 4293 ft | 249 kts | 180° |
| 2026-04-22 17:31 | 41.25206 | 17.15719 | 4202 ft | 232 kts | 213° |
| 2026-04-22 17:31 | 41.23971 | 17.14413 | 3954 ft | 223 kts | 234° |
| 2026-04-22 17:31 | 41.23084 | 17.12754 | 3685 ft | 217 kts | 248° |
| 2026-04-22 17:31 | 41.22523 | 17.10928 | 3439 ft | 212 kts | 256° |
| 2026-04-22 17:32 | 41.22054 | 17.09072 | 3196 ft | 214 kts | 256° |
| 2026-04-22 17:32 | 41.21563 | 17.07212 | 2991 ft | 212 kts | 256° |
| 2026-04-22 17:32 | 41.21102 | 17.05387 | 2989 ft | 207 kts | 257° |
| 2026-04-22 17:32 | 41.20676 | 17.03537 | 2988 ft | 211 kts | 258° |
| 2026-04-22 17:33 | 41.20394 | 17.02305 | 2985 ft | 212 kts | 259° |
| 2026-04-22 17:33 | 41.19809 | 16.99828 | 2953 ft | 210 kts | 258° |
| 2026-04-22 17:33 | 41.19367 | 16.97966 | 2798 ft | 212 kts | 257° |
| 2026-04-22 17:33 | 41.18920 | 16.96101 | 2634 ft | 208 kts | 257° |
| 2026-04-22 17:34 | 41.18499 | 16.94340 | 2461 ft | 195 kts | 257° |
| 2026-04-22 17:34 | 41.18104 | 16.92682 | 2284 ft | 182 kts | 257° |
| 2026-04-22 17:34 | 41.17721 | 16.91129 | 2066 ft | 173 kts | 258° |
| 2026-04-22 17:34 | 41.17361 | 16.89652 | 1861 ft | 159 kts | 258° |
| 2026-04-22 17:35 | 41.17036 | 16.88322 | 1710 ft | 144 kts | 257° |
| 2026-04-22 17:35 | 41.16711 | 16.87129 | 1590 ft | 133 kts | 256° |
| 2026-04-22 17:35 | 41.16375 | 16.85951 | 1346 ft | 142 kts | 256° |
| 2026-04-22 17:35 | 41.16022 | 16.84737 | 1252 ft | 140 kts | 256° |
| 2026-04-22 17:36 | 41.15725 | 16.83481 | 1116 ft | 145 kts | 259° |
| 2026-04-22 17:36 | 41.15470 | 16.82231 | 922 ft | 140 kts | 259° |
| 2026-04-22 17:36 | 41.15212 | 16.80977 | 711 ft | 141 kts | 255° |
| 2026-04-22 17:36 | 41.14894 | 16.79727 | 501 ft | 142 kts | 251° |
| 2026-04-22 17:37 | 41.14534 | 16.78488 | 311 ft | 144 kts | 250° |
| 2026-04-22 17:37 | 41.14194 | 16.77263 | 152 ft | 139 kts | 249° |
| 2026-04-22 17:37 | 41.13902 | 16.76233 | 147 ft | 87 kts | 248° |
| 2026-04-22 17:37 | 41.13766 | 16.75780 | 157 ft | 22 kts | 228° |
| 2026-04-22 17:38 | 41.13665 | 16.75672 | 160 ft | 9 kts | 216° |
| 2026-04-22 17:38 | 41.13656 | 16.75663 | 160 ft | 0 kts | 216° |
| 2026-04-22 17:39 | 41.13621 | 16.75640 | 160 ft | 6 kts | 186° |
| 2026-04-22 17:40 | 41.13572 | 16.75679 | 160 ft | 12 kts | 104° |
| 2026-04-22 17:40 | 41.13597 | 16.75817 | 157 ft | 19 kts | 70° |
| 2026-04-22 17:40 | 41.13637 | 16.75967 | 154 ft | 13 kts | 83° |
| 2026-04-22 17:40 | 41.13591 | 16.76072 | 153 ft | 13 kts | 141° |
| 2026-04-22 17:41 | 41.13561 | 16.76193 | 152 ft | 17 kts | 72° |
| 2026-04-22 17:41 | 41.13602 | 16.76337 | 148 ft | 7 kts | 72° |
| 2026-04-22 17:41 | 41.13573 | 16.76384 | 148 ft | 7 kts | 160° |
| 2026-04-22 17:41 | 41.13545 | 16.76398 | 148 ft | 1 kts | 160° |
| 2026-04-22 17:42 | 41.13544 | 16.76398 | 148 ft | 0 kts | 160° |